Aérodrome :
LOGIN :

S'inscrire | Disclaimer

   EN    FR    IT 

 










Légende :    VFR   VFR Marginal   IFR   IFR Intensif   IFR Très Intensif
Visi : 
Plafond : 
>= 8 km
>= 3000ft
5 à 8 km
1000 à 3000 ft
1500m à 5 km
500 à 1000 ft
800 à 1500m
200 à 500 ft
< 800m
< 200 ft
Symboles :   Orages  Brouillard  Fortes neiges  Fortes précipitations  Vent > 20 kt
SIGMETs :   Divers  Orages  Givrage  Turbulence  Onde Orograph.  Cendres Volcan.







- Altitude de l'aérodrome : 364 ft
- Voir les cartes d'approche


LFAQ - Albert Bray

DERNIER METAR :
  • 202100Z AUTO 15007KT 3500 BR BKN005 OVC010 01/01 Q1004

METARs EXPIRÉS :
  • 202030Z AUTO 13005KT 3700 -SN BR OVC008 01/01 Q1004
  • 202000Z AUTO 09006KT 4800 -RA BR OVC010 01/01 Q1004
  • 201930Z AUTO 07005KT 4300 BR OVC010 01/01 Q1004
  • 201900Z AUTO 07007KT 4600 -SNRA BR OVC013 01/01 Q1004
  • 201830Z AUTO 06006KT 4000 BR OVC016 01/01 Q1004

TAF TAF LFAQ
Valide du 20 à 15h jusqu'au 21 à 00h UTC


201400Z 2015/2024 06012KT 9999 OVC035
PROB30
TEMPO 2015/2021 4000 -RASN BKN008 OVC030
BECMG 2015/2018 13005KT
Pas de NOTAMs connus pour ce terrain.



MET'MAP, la Météo Aéronautique d'un coup d'oeil ! - Copyright ORBIFLY Décembre 2007 - Disclaimer

ORBIFLY MET'MAP TEAM :

Programmation & Développement : Alexandra Zaïnal
Conception & Développement : Baudouin d'Aumeries
Co-Programmation & Développement : Marc-Olivier Méhu
Soutien technique & logistique : Manuel Goepfert

Contact : metmap@orbifly.com




SOURCES & CREDITS :

   NOAA